sensor_id;sensor_type;location;lat;lon;timestamp;P1;durP1;ratioP1;P2;durP2;ratioP2
6537;SDS011;3302;52.508;13.454;2022-09-25T00:01:19;8.43;;;7.50;;
6537;SDS011;3302;52.508;13.454;2022-09-25T00:03:45;8.00;;;7.20;;
6537;SDS011;3302;52.508;13.454;2022-09-25T00:06:15;7.93;;;6.90;;
6537;SDS011;3302;52.508;13.454;2022-09-25T00:08:42;8.90;;;7.40;;
6537;SDS011;3302;52.508;13.454;2022-09-25T00:11:09;8.80;;;6.97;;
6537;SDS011;3302;52.508;13.454;2022-09-25T00:13:57;10.43;;;8.17;;
6537;SDS011;3302;52.508;13.454;2022-09-25T00:16:25;10.23;;;8.77;;
6537;SDS011;3302;52.508;13.454;2022-09-25T00:18:53;8.80;;;7.87;;
6537;SDS011;3302;52.508;13.454;2022-09-25T00:21:38;8.60;;;7.80;;
6537;SDS011;3302;52.508;13.454;2022-09-25T00:24:05;7.37;;;6.67;;
6537;SDS011;3302;52.508;13.454;2022-09-25T00:26:34;7.23;;;6.53;;
6537;SDS011;3302;52.508;13.454;2022-09-25T00:29:02;9.03;;;7.07;;
6537;SDS011;3302;52.508;13.454;2022-09-25T00:31:29;8.70;;;7.80;;
6537;SDS011;3302;52.508;13.454;2022-09-25T00:33:56;8.33;;;7.53;;
6537;SDS011;3302;52.508;13.454;2022-09-25T00:36:24;8.90;;;8.00;;
6537;SDS011;3302;52.508;13.454;2022-09-25T00:38:49;8.50;;;7.60;;
6537;SDS011;3302;52.508;13.454;2022-09-25T00:41:16;8.47;;;7.23;;
6537;SDS011;3302;52.508;13.454;2022-09-25T00:43:44;6.77;;;6.17;;
6537;SDS011;3302;52.508;13.454;2022-09-25T00:46:15;7.37;;;6.60;;
6537;SDS011;3302;52.508;13.454;2022-09-25T00:48:47;7.20;;;6.13;;
6537;SDS011;3302;52.508;13.454;2022-09-25T00:51:16;7.97;;;7.17;;
6537;SDS011;3302;52.508;13.454;2022-09-25T00:53:46;8.50;;;6.60;;
6537;SDS011;3302;52.508;13.454;2022-09-25T00:56:14;6.53;;;5.90;;
6537;SDS011;3302;52.508;13.454;2022-09-25T00:58:40;6.77;;;6.07;;
6537;SDS011;3302;52.508;13.454;2022-09-25T01:01:06;6.47;;;5.60;;
6537;SDS011;3302;52.508;13.454;2022-09-25T01:03:33;5.90;;;5.30;;
6537;SDS011;3302;52.508;13.454;2022-09-25T01:06:00;6.70;;;5.87;;
6537;SDS011;3302;52.508;13.454;2022-09-25T01:08:27;7.47;;;6.77;;
6537;SDS011;3302;52.508;13.454;2022-09-25T01:10:56;6.90;;;4.97;;
6537;SDS011;3302;52.508;13.454;2022-09-25T01:13:21;5.83;;;5.23;;
6537;SDS011;3302;52.508;13.454;2022-09-25T01:15:55;6.63;;;5.97;;
6537;SDS011;3302;52.508;13.454;2022-09-25T01:29:24;6.53;;;5.73;;
6537;SDS011;3302;52.508;13.454;2022-09-25T01:32:11;6.73;;;5.03;;
6537;SDS011;3302;52.508;13.454;2022-09-25T01:37:31;5.70;;;5.10;;
6537;SDS011;3302;52.508;13.454;2022-09-25T01:40:38;6.73;;;5.03;;
6537;SDS011;3302;52.508;13.454;2022-09-25T01:43:16;4.87;;;4.47;;
6537;SDS011;3302;52.508;13.454;2022-09-25T01:45:49;6.10;;;5.50;;
6537;SDS011;3302;52.508;13.454;2022-09-25T01:48:26;8.13;;;6.60;;
6537;SDS011;3302;52.508;13.454;2022-09-25T01:51:01;6.63;;;5.43;;
6537;SDS011;3302;52.508;13.454;2022-09-25T01:53:33;5.03;;;4.53;;
6537;SDS011;3302;52.508;13.454;2022-09-25T01:56:20;7.63;;;5.07;;
6537;SDS011;3302;52.508;13.454;2022-09-25T01:59:03;4.53;;;4.10;;
6537;SDS011;3302;52.508;13.454;2022-09-25T02:01:34;5.10;;;4.60;;
6537;SDS011;3302;52.508;13.454;2022-09-25T02:04:06;6.43;;;4.43;;
6537;SDS011;3302;52.508;13.454;2022-09-25T02:06:46;4.70;;;4.30;;
6537;SDS011;3302;52.508;13.454;2022-09-25T02:09:25;5.07;;;4.57;;
6537;SDS011;3302;52.508;13.454;2022-09-25T02:12:01;5.57;;;4.47;;
6537;SDS011;3302;52.508;13.454;2022-09-25T02:14:42;6.73;;;5.40;;
6537;SDS011;3302;52.508;13.454;2022-09-25T02:17:16;8.60;;;7.13;;
6537;SDS011;3302;52.508;13.454;2022-09-25T02:20:06;6.07;;;5.47;;
6537;SDS011;3302;52.508;13.454;2022-09-25T02:22:51;6.30;;;4.83;;
6537;SDS011;3302;52.508;13.454;2022-09-25T02:25:23;7.07;;;5.57;;
6537;SDS011;3302;52.508;13.454;2022-09-25T02:27:56;6.23;;;5.63;;
6537;SDS011;3302;52.508;13.454;2022-09-25T02:30:21;6.77;;;4.80;;
6537;SDS011;3302;52.508;13.454;2022-09-25T02:32:47;6.23;;;5.07;;
6537;SDS011;3302;52.508;13.454;2022-09-25T02:35:13;7.20;;;5.23;;
6537;SDS011;3302;52.508;13.454;2022-09-25T02:37:40;6.93;;;6.10;;
6537;SDS011;3302;52.508;13.454;2022-09-25T02:40:06;8.60;;;7.63;;
6537;SDS011;3302;52.508;13.454;2022-09-25T02:42:44;10.10;;;8.60;;
6537;SDS011;3302;52.508;13.454;2022-09-25T02:45:26;8.60;;;7.30;;
6537;SDS011;3302;52.508;13.454;2022-09-25T02:48:23;8.23;;;7.27;;
6537;SDS011;3302;52.508;13.454;2022-09-25T02:51:15;7.23;;;6.00;;
6537;SDS011;3302;52.508;13.454;2022-09-25T03:00:10;6.70;;;5.60;;
6537;SDS011;3302;52.508;13.454;2022-09-25T03:02:37;7.47;;;5.10;;
6537;SDS011;3302;52.508;13.454;2022-09-25T03:05:05;5.83;;;5.20;;
6537;SDS011;3302;52.508;13.454;2022-09-25T03:07:34;5.70;;;5.10;;
6537;SDS011;3302;52.508;13.454;2022-09-25T03:10:20;5.80;;;5.17;;
6537;SDS011;3302;52.508;13.454;2022-09-25T03:12:47;9.77;;;7.00;;
6537;SDS011;3302;52.508;13.454;2022-09-25T03:15:12;6.27;;;5.67;;
6537;SDS011;3302;52.508;13.454;2022-09-25T03:17:38;6.60;;;5.90;;
6537;SDS011;3302;52.508;13.454;2022-09-25T03:20:05;6.47;;;5.77;;
6537;SDS011;3302;52.508;13.454;2022-09-25T03:22:32;6.30;;;5.67;;
6537;SDS011;3302;52.508;13.454;2022-09-25T03:24:57;7.80;;;6.20;;
6537;SDS011;3302;52.508;13.454;2022-09-25T03:27:23;8.47;;;6.33;;
6537;SDS011;3302;52.508;13.454;2022-09-25T03:29:52;6.53;;;5.60;;
6537;SDS011;3302;52.508;13.454;2022-09-25T03:32:19;6.17;;;5.57;;
6537;SDS011;3302;52.508;13.454;2022-09-25T03:34:46;5.70;;;5.20;;
6537;SDS011;3302;52.508;13.454;2022-09-25T03:37:12;6.50;;;5.53;;
6537;SDS011;3302;52.508;13.454;2022-09-25T03:39:37;8.77;;;7.20;;
6537;SDS011;3302;52.508;13.454;2022-09-25T03:42:03;10.30;;;6.93;;
6537;SDS011;3302;52.508;13.454;2022-09-25T03:44:29;7.77;;;6.20;;
6537;SDS011;3302;52.508;13.454;2022-09-25T03:46:55;7.63;;;6.40;;
6537;SDS011;3302;52.508;13.454;2022-09-25T03:49:21;7.23;;;6.50;;
6537;SDS011;3302;52.508;13.454;2022-09-25T03:51:47;7.60;;;6.90;;
6537;SDS011;3302;52.508;13.454;2022-09-25T03:54:12;7.93;;;6.87;;
6537;SDS011;3302;52.508;13.454;2022-09-25T03:56:39;8.40;;;6.03;;
6537;SDS011;3302;52.508;13.454;2022-09-25T03:59:04;7.13;;;5.60;;
6537;SDS011;3302;52.508;13.454;2022-09-25T04:01:30;6.50;;;5.80;;
6537;SDS011;3302;52.508;13.454;2022-09-25T04:03:56;5.93;;;5.33;;
6537;SDS011;3302;52.508;13.454;2022-09-25T04:06:23;5.63;;;5.13;;
6537;SDS011;3302;52.508;13.454;2022-09-25T04:08:50;5.83;;;4.90;;
6537;SDS011;3302;52.508;13.454;2022-09-25T04:11:17;6.13;;;5.53;;
6537;SDS011;3302;52.508;13.454;2022-09-25T04:13:44;6.80;;;6.00;;
6537;SDS011;3302;52.508;13.454;2022-09-25T04:16:11;6.90;;;5.70;;
6537;SDS011;3302;52.508;13.454;2022-09-25T04:18:38;5.90;;;5.30;;
6537;SDS011;3302;52.508;13.454;2022-09-25T04:21:07;6.70;;;5.97;;
6537;SDS011;3302;52.508;13.454;2022-09-25T04:23:34;7.17;;;5.63;;
6537;SDS011;3302;52.508;13.454;2022-09-25T04:26:01;8.30;;;6.57;;
6537;SDS011;3302;52.508;13.454;2022-09-25T04:28:27;7.57;;;6.87;;
6537;SDS011;3302;52.508;13.454;2022-09-25T04:30:55;9.33;;;6.63;;
6537;SDS011;3302;52.508;13.454;2022-09-25T04:33:21;6.30;;;5.73;;
6537;SDS011;3302;52.508;13.454;2022-09-25T04:36:05;6.00;;;5.50;;
6537;SDS011;3302;52.508;13.454;2022-09-25T04:38:31;6.83;;;6.23;;
6537;SDS011;3302;52.508;13.454;2022-09-25T04:40:57;7.57;;;5.90;;
6537;SDS011;3302;52.508;13.454;2022-09-25T04:43:26;10.53;;;6.80;;
6537;SDS011;3302;52.508;13.454;2022-09-25T04:45:59;7.53;;;5.60;;
6537;SDS011;3302;52.508;13.454;2022-09-25T04:48:30;8.40;;;7.03;;
6537;SDS011;3302;52.508;13.454;2022-09-25T04:50:56;8.37;;;6.60;;
6537;SDS011;3302;52.508;13.454;2022-09-25T04:53:23;8.70;;;7.80;;
6537;SDS011;3302;52.508;13.454;2022-09-25T04:55:50;9.27;;;8.33;;
6537;SDS011;3302;52.508;13.454;2022-09-25T04:58:18;8.70;;;7.80;;
6537;SDS011;3302;52.508;13.454;2022-09-25T05:00:44;7.20;;;6.60;;
6537;SDS011;3302;52.508;13.454;2022-09-25T05:03:10;7.47;;;6.37;;
6537;SDS011;3302;52.508;13.454;2022-09-25T05:05:35;8.00;;;6.20;;
6537;SDS011;3302;52.508;13.454;2022-09-25T05:08:01;9.20;;;6.77;;
6537;SDS011;3302;52.508;13.454;2022-09-25T05:10:28;8.17;;;6.80;;
6537;SDS011;3302;52.508;13.454;2022-09-25T05:12:56;7.57;;;6.70;;
6537;SDS011;3302;52.508;13.454;2022-09-25T05:15:24;8.00;;;7.10;;
6537;SDS011;3302;52.508;13.454;2022-09-25T05:18:25;8.93;;;7.30;;
6537;SDS011;3302;52.508;13.454;2022-09-25T05:20:46;7.07;;;6.37;;
6537;SDS011;3302;52.508;13.454;2022-09-25T05:23:12;8.67;;;7.17;;
6537;SDS011;3302;52.508;13.454;2022-09-25T05:25:38;9.30;;;6.90;;
6537;SDS011;3302;52.508;13.454;2022-09-25T05:28:04;7.70;;;7.00;;
6537;SDS011;3302;52.508;13.454;2022-09-25T05:30:31;8.17;;;7.37;;
6537;SDS011;3302;52.508;13.454;2022-09-25T05:32:58;9.50;;;7.10;;
6537;SDS011;3302;52.508;13.454;2022-09-25T05:35:25;9.57;;;7.40;;
6537;SDS011;3302;52.508;13.454;2022-09-25T05:37:52;8.53;;;7.27;;
6537;SDS011;3302;52.508;13.454;2022-09-25T05:40:19;7.83;;;6.93;;
6537;SDS011;3302;52.508;13.454;2022-09-25T05:42:45;7.57;;;6.77;;
6537;SDS011;3302;52.508;13.454;2022-09-25T05:45:12;7.67;;;6.93;;
6537;SDS011;3302;52.508;13.454;2022-09-25T05:47:39;7.83;;;7.00;;
6537;SDS011;3302;52.508;13.454;2022-09-25T05:50:05;8.43;;;6.80;;
6537;SDS011;3302;52.508;13.454;2022-09-25T05:52:33;8.93;;;6.90;;
6537;SDS011;3302;52.508;13.454;2022-09-25T05:54:59;7.73;;;6.47;;
6537;SDS011;3302;52.508;13.454;2022-09-25T05:57:30;8.30;;;7.40;;
6537;SDS011;3302;52.508;13.454;2022-09-25T05:59:57;7.97;;;6.63;;
6537;SDS011;3302;52.508;13.454;2022-09-25T06:02:23;8.03;;;7.23;;
6537;SDS011;3302;52.508;13.454;2022-09-25T06:04:49;7.73;;;6.87;;
6537;SDS011;3302;52.508;13.454;2022-09-25T06:07:15;8.60;;;7.00;;
6537;SDS011;3302;52.508;13.454;2022-09-25T06:09:41;7.93;;;7.13;;
6537;SDS011;3302;52.508;13.454;2022-09-25T06:12:06;8.67;;;6.93;;
6537;SDS011;3302;52.508;13.454;2022-09-25T06:14:32;10.73;;;7.23;;
6537;SDS011;3302;52.508;13.454;2022-09-25T06:17:01;7.83;;;7.03;;
6537;SDS011;3302;52.508;13.454;2022-09-25T06:19:28;7.70;;;6.87;;
6537;SDS011;3302;52.508;13.454;2022-09-25T06:21:54;8.07;;;7.23;;
6537;SDS011;3302;52.508;13.454;2022-09-25T06:24:22;7.70;;;6.90;;
6537;SDS011;3302;52.508;13.454;2022-09-25T06:26:48;10.37;;;7.50;;
6537;SDS011;3302;52.508;13.454;2022-09-25T06:29:13;8.53;;;7.73;;
6537;SDS011;3302;52.508;13.454;2022-09-25T06:31:39;10.30;;;7.53;;
6537;SDS011;3302;52.508;13.454;2022-09-25T06:34:05;7.60;;;6.80;;
6537;SDS011;3302;52.508;13.454;2022-09-25T06:36:31;8.90;;;7.53;;
6537;SDS011;3302;52.508;13.454;2022-09-25T06:38:57;7.63;;;6.83;;
6537;SDS011;3302;52.508;13.454;2022-09-25T06:41:23;8.97;;;7.53;;
6537;SDS011;3302;52.508;13.454;2022-09-25T06:43:49;9.83;;;8.10;;
6537;SDS011;3302;52.508;13.454;2022-09-25T06:46:15;8.33;;;7.53;;
6537;SDS011;3302;52.508;13.454;2022-09-25T06:48:42;8.13;;;7.33;;
6537;SDS011;3302;52.508;13.454;2022-09-25T06:51:08;9.73;;;7.53;;
6537;SDS011;3302;52.508;13.454;2022-09-25T06:53:34;8.47;;;7.63;;
6537;SDS011;3302;52.508;13.454;2022-09-25T06:56:00;10.10;;;8.07;;
6537;SDS011;3302;52.508;13.454;2022-09-25T06:58:27;9.93;;;7.43;;
6537;SDS011;3302;52.508;13.454;2022-09-25T07:00:54;9.37;;;7.80;;
6537;SDS011;3302;52.508;13.454;2022-09-25T07:03:21;9.27;;;7.13;;
6537;SDS011;3302;52.508;13.454;2022-09-25T07:06:07;8.27;;;7.20;;
6537;SDS011;3302;52.508;13.454;2022-09-25T07:08:35;8.23;;;7.27;;
6537;SDS011;3302;52.508;13.454;2022-09-25T07:11:01;8.67;;;7.77;;
6537;SDS011;3302;52.508;13.454;2022-09-25T07:13:28;9.30;;;7.50;;
6537;SDS011;3302;52.508;13.454;2022-09-25T07:15:56;8.30;;;7.13;;
6537;SDS011;3302;52.508;13.454;2022-09-25T07:18:24;9.07;;;7.83;;
6537;SDS011;3302;52.508;13.454;2022-09-25T07:20:51;8.93;;;7.50;;
6537;SDS011;3302;52.508;13.454;2022-09-25T07:23:18;8.70;;;7.57;;
6537;SDS011;3302;52.508;13.454;2022-09-25T07:25:46;11.50;;;8.17;;
6537;SDS011;3302;52.508;13.454;2022-09-25T07:28:13;9.10;;;8.20;;
6537;SDS011;3302;52.508;13.454;2022-09-25T07:30:40;8.70;;;7.80;;
6537;SDS011;3302;52.508;13.454;2022-09-25T07:33:07;8.73;;;7.83;;
6537;SDS011;3302;52.508;13.454;2022-09-25T07:35:33;9.30;;;7.97;;
6537;SDS011;3302;52.508;13.454;2022-09-25T07:38:00;9.70;;;7.83;;
6537;SDS011;3302;52.508;13.454;2022-09-25T07:40:26;10.47;;;8.07;;
6537;SDS011;3302;52.508;13.454;2022-09-25T07:42:59;9.03;;;8.13;;
6537;SDS011;3302;52.508;13.454;2022-09-25T07:45:25;9.93;;;8.40;;
6537;SDS011;3302;52.508;13.454;2022-09-25T07:47:58;10.10;;;8.27;;
6537;SDS011;3302;52.508;13.454;2022-09-25T07:50:25;9.20;;;8.20;;
6537;SDS011;3302;52.508;13.454;2022-09-25T07:52:52;11.07;;;8.10;;
6537;SDS011;3302;52.508;13.454;2022-09-25T07:55:18;9.03;;;8.00;;
6537;SDS011;3302;52.508;13.454;2022-09-25T07:57:44;11.37;;;8.80;;
6537;SDS011;3302;52.508;13.454;2022-09-25T08:00:11;9.27;;;8.33;;
6537;SDS011;3302;52.508;13.454;2022-09-25T08:02:37;9.00;;;7.40;;
6537;SDS011;3302;52.508;13.454;2022-09-25T08:05:03;9.10;;;8.20;;
6537;SDS011;3302;52.508;13.454;2022-09-25T08:07:29;9.17;;;8.03;;
6537;SDS011;3302;52.508;13.454;2022-09-25T08:09:55;9.20;;;7.90;;
6537;SDS011;3302;52.508;13.454;2022-09-25T08:12:20;11.33;;;8.63;;
6537;SDS011;3302;52.508;13.454;2022-09-25T08:14:48;12.47;;;8.23;;
6537;SDS011;3302;52.508;13.454;2022-09-25T08:17:15;12.80;;;8.70;;
6537;SDS011;3302;52.508;13.454;2022-09-25T08:19:41;8.53;;;7.63;;
6537;SDS011;3302;52.508;13.454;2022-09-25T08:22:06;10.00;;;8.17;;
6537;SDS011;3302;52.508;13.454;2022-09-25T08:24:32;10.17;;;8.27;;
6537;SDS011;3302;52.508;13.454;2022-09-25T08:26:58;8.90;;;7.50;;
6537;SDS011;3302;52.508;13.454;2022-09-25T08:29:23;8.40;;;7.53;;
6537;SDS011;3302;52.508;13.454;2022-09-25T08:31:49;10.00;;;8.10;;
6537;SDS011;3302;52.508;13.454;2022-09-25T08:34:15;9.77;;;8.67;;
6537;SDS011;3302;52.508;13.454;2022-09-25T08:36:42;10.33;;;8.33;;
6537;SDS011;3302;52.508;13.454;2022-09-25T08:39:08;10.93;;;8.50;;
6537;SDS011;3302;52.508;13.454;2022-09-25T08:41:41;10.50;;;8.90;;
6537;SDS011;3302;52.508;13.454;2022-09-25T08:44:35;8.93;;;8.03;;
6537;SDS011;3302;52.508;13.454;2022-09-25T08:47:05;9.30;;;8.27;;
6537;SDS011;3302;52.508;13.454;2022-09-25T08:52:30;10.50;;;8.57;;
6537;SDS011;3302;52.508;13.454;2022-09-25T08:54:57;9.17;;;7.67;;
6537;SDS011;3302;52.508;13.454;2022-09-25T08:57:36;9.83;;;8.57;;
6537;SDS011;3302;52.508;13.454;2022-09-25T09:00:18;10.77;;;9.40;;
6537;SDS011;3302;52.508;13.454;2022-09-25T09:02:49;9.40;;;8.40;;
6537;SDS011;3302;52.508;13.454;2022-09-25T09:05:25;8.97;;;8.07;;
6537;SDS011;3302;52.508;13.454;2022-09-25T09:08:05;9.43;;;8.43;;
6537;SDS011;3302;52.508;13.454;2022-09-25T09:10:42;12.73;;;10.13;;
6537;SDS011;3302;52.508;13.454;2022-09-25T09:13:23;9.60;;;8.60;;
6537;SDS011;3302;52.508;13.454;2022-09-25T09:18:30;8.87;;;7.87;;
6537;SDS011;3302;52.508;13.454;2022-09-25T09:21:07;9.87;;;8.07;;
6537;SDS011;3302;52.508;13.454;2022-09-25T09:27:01;9.47;;;8.00;;
6537;SDS011;3302;52.508;13.454;2022-09-25T09:29:53;10.47;;;8.23;;
6537;SDS011;3302;52.508;13.454;2022-09-25T09:38:05;9.07;;;8.17;;
6537;SDS011;3302;52.508;13.454;2022-09-25T09:46:23;9.30;;;8.27;;
6537;SDS011;3302;52.508;13.454;2022-09-25T09:49:02;8.47;;;7.67;;
6537;SDS011;3302;52.508;13.454;2022-09-25T09:57:00;8.57;;;7.73;;
6537;SDS011;3302;52.508;13.454;2022-09-25T09:59:34;9.37;;;7.40;;
6537;SDS011;3302;52.508;13.454;2022-09-25T10:02:19;9.00;;;8.10;;
6537;SDS011;3302;52.508;13.454;2022-09-25T10:05:24;9.07;;;7.70;;
6537;SDS011;3302;52.508;13.454;2022-09-25T10:07:50;9.33;;;7.93;;
6537;SDS011;3302;52.508;13.454;2022-09-25T10:10:16;9.70;;;8.00;;
6537;SDS011;3302;52.508;13.454;2022-09-25T10:12:50;10.57;;;8.97;;
6537;SDS011;3302;52.508;13.454;2022-09-25T10:15:40;12.37;;;9.00;;
6537;SDS011;3302;52.508;13.454;2022-09-25T10:18:07;9.60;;;8.60;;
6537;SDS011;3302;52.508;13.454;2022-09-25T10:20:43;9.80;;;8.27;;
6537;SDS011;3302;52.508;13.454;2022-09-25T10:23:16;10.20;;;8.90;;
6537;SDS011;3302;52.508;13.454;2022-09-25T10:28:49;8.90;;;8.00;;
6537;SDS011;3302;52.508;13.454;2022-09-25T10:31:16;9.47;;;8.50;;
6537;SDS011;3302;52.508;13.454;2022-09-25T10:33:49;11.90;;;9.40;;
6537;SDS011;3302;52.508;13.454;2022-09-25T10:36:43;9.70;;;8.43;;
6537;SDS011;3302;52.508;13.454;2022-09-25T10:39:27;10.13;;;9.10;;
6537;SDS011;3302;52.508;13.454;2022-09-25T10:41:57;10.13;;;9.13;;
6537;SDS011;3302;52.508;13.454;2022-09-25T10:44:28;11.93;;;9.27;;
6537;SDS011;3302;52.508;13.454;2022-09-25T10:47:42;9.97;;;8.97;;
6537;SDS011;3302;52.508;13.454;2022-09-25T10:50:19;11.07;;;9.00;;
6537;SDS011;3302;52.508;13.454;2022-09-25T11:00:56;9.87;;;8.90;;
6537;SDS011;3302;52.508;13.454;2022-09-25T11:03:36;11.87;;;7.80;;
6537;SDS011;3302;52.508;13.454;2022-09-25T11:06:16;8.07;;;7.03;;
6537;SDS011;3302;52.508;13.454;2022-09-25T11:08:45;7.60;;;6.90;;
6537;SDS011;3302;52.508;13.454;2022-09-25T11:11:21;7.77;;;6.97;;
6537;SDS011;3302;52.508;13.454;2022-09-25T11:13:52;8.47;;;7.23;;
6537;SDS011;3302;52.508;13.454;2022-09-25T11:16:40;7.70;;;6.80;;
6537;SDS011;3302;52.508;13.454;2022-09-25T11:19:34;7.30;;;6.60;;
6537;SDS011;3302;52.508;13.454;2022-09-25T11:25:04;8.07;;;7.27;;
6537;SDS011;3302;52.508;13.454;2022-09-25T11:27:46;9.97;;;7.60;;
6537;SDS011;3302;52.508;13.454;2022-09-25T11:30:36;8.07;;;7.27;;
6537;SDS011;3302;52.508;13.454;2022-09-25T11:33:09;8.43;;;7.50;;
6537;SDS011;3302;52.508;13.454;2022-09-25T11:39:12;7.77;;;6.93;;
6537;SDS011;3302;52.508;13.454;2022-09-25T11:42:07;8.10;;;7.30;;
6537;SDS011;3302;52.508;13.454;2022-09-25T11:44:41;8.57;;;7.30;;
6537;SDS011;3302;52.508;13.454;2022-09-25T11:47:31;11.13;;;9.20;;
6537;SDS011;3302;52.508;13.454;2022-09-25T11:50:02;9.07;;;7.83;;
6537;SDS011;3302;52.508;13.454;2022-09-25T11:52:38;7.70;;;6.90;;
6537;SDS011;3302;52.508;13.454;2022-09-25T11:55:35;7.87;;;7.07;;
6537;SDS011;3302;52.508;13.454;2022-09-25T11:58:19;9.10;;;6.90;;
6537;SDS011;3302;52.508;13.454;2022-09-25T12:00:56;9.67;;;6.97;;
6537;SDS011;3302;52.508;13.454;2022-09-25T12:03:33;8.20;;;7.40;;
6537;SDS011;3302;52.508;13.454;2022-09-25T12:08:46;8.27;;;7.47;;
6537;SDS011;3302;52.508;13.454;2022-09-25T12:11:27;8.43;;;7.53;;
6537;SDS011;3302;52.508;13.454;2022-09-25T12:14:25;9.60;;;7.87;;
6537;SDS011;3302;52.508;13.454;2022-09-25T12:19:44;8.63;;;7.73;;
6537;SDS011;3302;52.508;13.454;2022-09-25T12:32:57;7.03;;;6.43;;
6537;SDS011;3302;52.508;13.454;2022-09-25T12:35:47;9.17;;;7.40;;
6537;SDS011;3302;52.508;13.454;2022-09-25T12:43:50;6.83;;;6.13;;
6537;SDS011;3302;52.508;13.454;2022-09-25T12:46:27;9.27;;;8.13;;
6537;SDS011;3302;52.508;13.454;2022-09-25T12:49:05;6.90;;;6.17;;
6537;SDS011;3302;52.508;13.454;2022-09-25T12:52:08;7.60;;;6.80;;
6537;SDS011;3302;52.508;13.454;2022-09-25T12:54:48;8.07;;;7.27;;
6537;SDS011;3302;52.508;13.454;2022-09-25T12:57:35;5.80;;;5.20;;
6537;SDS011;3302;52.508;13.454;2022-09-25T13:03:07;5.37;;;4.77;;
6537;SDS011;3302;52.508;13.454;2022-09-25T13:05:59;6.43;;;5.23;;
6537;SDS011;3302;52.508;13.454;2022-09-25T13:08:50;7.93;;;5.30;;
6537;SDS011;3302;52.508;13.454;2022-09-25T13:11:39;6.57;;;5.40;;
6537;SDS011;3302;52.508;13.454;2022-09-25T13:14:36;7.00;;;5.70;;
6537;SDS011;3302;52.508;13.454;2022-09-25T13:17:09;6.30;;;5.63;;
6537;SDS011;3302;52.508;13.454;2022-09-25T13:19:37;6.47;;;5.37;;
6537;SDS011;3302;52.508;13.454;2022-09-25T13:22:04;5.50;;;5.00;;
6537;SDS011;3302;52.508;13.454;2022-09-25T13:24:43;6.23;;;5.40;;
6537;SDS011;3302;52.508;13.454;2022-09-25T13:27:18;5.93;;;5.17;;
6537;SDS011;3302;52.508;13.454;2022-09-25T13:29:56;7.63;;;6.10;;
6537;SDS011;3302;52.508;13.454;2022-09-25T13:32:25;5.93;;;5.07;;
6537;SDS011;3302;52.508;13.454;2022-09-25T13:35:03;7.50;;;5.50;;
6537;SDS011;3302;52.508;13.454;2022-09-25T13:37:32;5.93;;;5.30;;
6537;SDS011;3302;52.508;13.454;2022-09-25T13:40:01;5.77;;;4.83;;
6537;SDS011;3302;52.508;13.454;2022-09-25T13:45:48;7.17;;;5.70;;
6537;SDS011;3302;52.508;13.454;2022-09-25T13:48:45;6.50;;;5.03;;
6537;SDS011;3302;52.508;13.454;2022-09-25T13:57:05;5.63;;;5.00;;
6537;SDS011;3302;52.508;13.454;2022-09-25T13:59:21;5.33;;;4.43;;
6537;SDS011;3302;52.508;13.454;2022-09-25T14:01:50;5.70;;;5.10;;
6537;SDS011;3302;52.508;13.454;2022-09-25T14:04:22;5.03;;;4.53;;
6537;SDS011;3302;52.508;13.454;2022-09-25T14:06:54;5.87;;;5.27;;
6537;SDS011;3302;52.508;13.454;2022-09-25T14:09:28;6.53;;;4.57;;
6537;SDS011;3302;52.508;13.454;2022-09-25T14:17:16;6.63;;;4.90;;
6537;SDS011;3302;52.508;13.454;2022-09-25T14:19:44;5.73;;;5.13;;
6537;SDS011;3302;52.508;13.454;2022-09-25T14:22:17;5.20;;;4.70;;
6537;SDS011;3302;52.508;13.454;2022-09-25T14:24:53;6.07;;;5.40;;
6537;SDS011;3302;52.508;13.454;2022-09-25T14:27:21;5.70;;;5.10;;
6537;SDS011;3302;52.508;13.454;2022-09-25T14:29:49;7.43;;;5.23;;
6537;SDS011;3302;52.508;13.454;2022-09-25T14:32:22;5.60;;;5.03;;
6537;SDS011;3302;52.508;13.454;2022-09-25T14:35:07;6.83;;;5.70;;
6537;SDS011;3302;52.508;13.454;2022-09-25T14:37:54;6.67;;;5.40;;
6537;SDS011;3302;52.508;13.454;2022-09-25T14:40:42;6.03;;;5.43;;
6537;SDS011;3302;52.508;13.454;2022-09-25T14:46:19;6.93;;;5.97;;
6537;SDS011;3302;52.508;13.454;2022-09-25T14:51:22;6.67;;;6.07;;
6537;SDS011;3302;52.508;13.454;2022-09-25T14:53:57;7.60;;;6.33;;
6537;SDS011;3302;52.508;13.454;2022-09-25T14:56:27;7.40;;;6.27;;
6537;SDS011;3302;52.508;13.454;2022-09-25T14:58:57;6.83;;;6.13;;
6537;SDS011;3302;52.508;13.454;2022-09-25T15:01:28;6.90;;;6.20;;
6537;SDS011;3302;52.508;13.454;2022-09-25T15:03:56;6.43;;;5.77;;
6537;SDS011;3302;52.508;13.454;2022-09-25T15:06:32;8.43;;;7.30;;
6537;SDS011;3302;52.508;13.454;2022-09-25T15:08:59;7.83;;;6.80;;
6537;SDS011;3302;52.508;13.454;2022-09-25T15:11:37;7.20;;;6.50;;
6537;SDS011;3302;52.508;13.454;2022-09-25T15:14:08;10.37;;;7.43;;
6537;SDS011;3302;52.508;13.454;2022-09-25T15:16:35;7.90;;;7.10;;
6537;SDS011;3302;52.508;13.454;2022-09-25T15:19:21;7.73;;;6.93;;
6537;SDS011;3302;52.508;13.454;2022-09-25T15:21:57;7.20;;;6.50;;
6537;SDS011;3302;52.508;13.454;2022-09-25T15:24:30;8.27;;;6.70;;
6537;SDS011;3302;52.508;13.454;2022-09-25T15:27:00;6.67;;;5.97;;
6537;SDS011;3302;52.508;13.454;2022-09-25T15:29:30;6.90;;;6.20;;
6537;SDS011;3302;52.508;13.454;2022-09-25T15:31:59;7.50;;;6.37;;
6537;SDS011;3302;52.508;13.454;2022-09-25T15:34:26;8.03;;;6.77;;
6537;SDS011;3302;52.508;13.454;2022-09-25T15:37:08;6.07;;;5.47;;
6537;SDS011;3302;52.508;13.454;2022-09-25T15:39:49;7.60;;;6.23;;
6537;SDS011;3302;52.508;13.454;2022-09-25T15:42:15;7.43;;;6.50;;
6537;SDS011;3302;52.508;13.454;2022-09-25T15:44:42;6.83;;;6.13;;
6537;SDS011;3302;52.508;13.454;2022-09-25T15:47:53;7.63;;;6.63;;
6537;SDS011;3302;52.508;13.454;2022-09-25T15:49:53;7.53;;;6.83;;
6537;SDS011;3302;52.508;13.454;2022-09-25T15:52:27;7.20;;;6.10;;
6537;SDS011;3302;52.508;13.454;2022-09-25T15:55:01;7.60;;;6.17;;
6537;SDS011;3302;52.508;13.454;2022-09-25T15:57:30;6.87;;;6.27;;
6537;SDS011;3302;52.508;13.454;2022-09-25T15:59:57;6.80;;;6.10;;
6537;SDS011;3302;52.508;13.454;2022-09-25T16:02:55;6.20;;;5.60;;
6537;SDS011;3302;52.508;13.454;2022-09-25T16:05:45;6.63;;;6.00;;
6537;SDS011;3302;52.508;13.454;2022-09-25T16:08:34;7.17;;;6.47;;
6537;SDS011;3302;52.508;13.454;2022-09-25T16:13:33;9.60;;;6.63;;
6537;SDS011;3302;52.508;13.454;2022-09-25T16:16:03;7.60;;;6.87;;
6537;SDS011;3302;52.508;13.454;2022-09-25T16:18:38;7.80;;;7.00;;
6537;SDS011;3302;52.508;13.454;2022-09-25T16:21:12;7.87;;;7.07;;
6537;SDS011;3302;52.508;13.454;2022-09-25T16:23:41;7.87;;;7.07;;
6537;SDS011;3302;52.508;13.454;2022-09-25T16:26:13;7.93;;;6.60;;
6537;SDS011;3302;52.508;13.454;2022-09-25T16:28:43;7.13;;;6.43;;
6537;SDS011;3302;52.508;13.454;2022-09-25T16:31:15;6.97;;;6.27;;
6537;SDS011;3302;52.508;13.454;2022-09-25T16:33:47;7.87;;;7.03;;
6537;SDS011;3302;52.508;13.454;2022-09-25T16:36:15;8.80;;;6.47;;
6537;SDS011;3302;52.508;13.454;2022-09-25T16:39:28;6.23;;;5.63;;
6537;SDS011;3302;52.508;13.454;2022-09-25T16:41:31;9.10;;;7.00;;
6537;SDS011;3302;52.508;13.454;2022-09-25T16:44:19;7.63;;;6.40;;
6537;SDS011;3302;52.508;13.454;2022-09-25T16:49:20;9.40;;;8.40;;
6537;SDS011;3302;52.508;13.454;2022-09-25T16:51:47;6.83;;;6.00;;
6537;SDS011;3302;52.508;13.454;2022-09-25T16:54:15;6.83;;;5.47;;
6537;SDS011;3302;52.508;13.454;2022-09-25T16:56:42;7.43;;;5.83;;
6537;SDS011;3302;52.508;13.454;2022-09-25T16:59:14;6.83;;;6.13;;
6537;SDS011;3302;52.508;13.454;2022-09-25T17:01:49;6.17;;;5.57;;
6537;SDS011;3302;52.508;13.454;2022-09-25T17:04:23;7.20;;;6.17;;
6537;SDS011;3302;52.508;13.454;2022-09-25T17:06:52;6.67;;;5.97;;
6537;SDS011;3302;52.508;13.454;2022-09-25T17:09:21;6.73;;;6.13;;
6537;SDS011;3302;52.508;13.454;2022-09-25T17:11:47;7.73;;;5.70;;
6537;SDS011;3302;52.508;13.454;2022-09-25T17:14:23;7.00;;;6.30;;
6537;SDS011;3302;52.508;13.454;2022-09-25T17:16:50;8.00;;;7.20;;
6537;SDS011;3302;52.508;13.454;2022-09-25T17:19:18;6.03;;;5.43;;
6537;SDS011;3302;52.508;13.454;2022-09-25T17:21:45;6.33;;;5.70;;
6537;SDS011;3302;52.508;13.454;2022-09-25T17:24:19;6.57;;;5.27;;